Time;durP1;ratioP1;P1;durP2;ratioP2;P2;SDS_P1;SDS_P2;PMS_P1;PMS_P2;Temp;Humidity;BMP_temperature;BMP_pressure;BME280_temperature;BME280_humidity;BME280_pressure;Samples;Min_cycle;Max_cycle;Signal;HPM_P1;HPM_P2
2023/01/05 00:01:35;;;;;;;34.10;17.98;;;12.00;96.70;;;;;;5064297;28;20449;-74
2023/01/05 00:04:03;;;;;;;33.92;18.58;;;12.00;96.70;;;;;;5052755;28;20045;-73
2023/01/05 00:06:32;;;;;;;33.85;17.13;;;11.90;96.70;;;;;;5043239;28;20780;-73
2023/01/05 00:09:02;;;;;;;33.53;18.38;;;12.00;96.70;;;;;;5053953;28;20044;-73
2023/01/05 00:22:44;;;;;;;34.67;16.03;;;12.10;96.70;;;;;;5062745;28;20053;-73
2023/01/05 00:25:15;;;;;;;35.22;16.23;;;12.00;96.70;;;;;;5040452;28;20636;-73
2023/01/05 00:27:46;;;;;;;28.52;16.65;;;11.90;96.70;;;;;;5059547;28;20127;-73
2023/01/05 00:30:16;;;;;;;30.17;16.67;;;11.90;96.70;;;;;;5054373;28;20044;-73
2023/01/05 00:32:44;;;;;;;33.33;18.13;;;11.90;96.70;;;;;;5052922;28;20044;-73
2023/01/05 00:35:14;;;;;;;29.23;17.23;;;12.00;96.70;;;;;;5037697;28;20032;-74
2023/01/05 00:37:42;;;;;;;34.88;18.17;;;12.00;96.70;;;;;;5051645;28;20051;-73
2023/01/05 00:40:14;;;;;;;29.40;17.88;;;12.00;96.70;;;;;;5045588;28;20058;-73
2023/01/05 00:42:43;;;;;;;30.30;16.98;;;11.90;96.70;;;;;;5063332;28;20044;-73
2023/01/05 00:45:13;;;;;;;36.10;17.10;;;11.90;96.70;;;;;;5061847;28;20040;-72
2023/01/05 00:47:41;;;;;;;32.55;16.98;;;11.90;96.70;;;;;;5055229;28;20045;-73
2023/01/05 00:50:12;;;;;;;26.30;15.15;;;12.00;96.70;;;;;;5063073;28;20417;-73
2023/01/05 00:52:40;;;;;;;21.23;15.13;;;12.00;96.70;;;;;;5056631;28;20049;-73
2023/01/05 00:55:09;;;;;;;26.27;15.13;;;12.00;96.70;;;;;;5051455;28;20113;-73
2023/01/05 00:57:38;;;;;;;24.17;16.08;;;12.00;96.70;;;;;;5049266;28;20047;-73
2023/01/05 01:00:12;;;;;;;21.02;16.25;;;12.00;96.70;;;;;;5044093;28;20055;-73
2023/01/05 01:02:40;;;;;;;23.60;16.85;;;12.00;96.70;;;;;;5048405;28;20072;-73
2023/01/05 01:05:08;;;;;;;22.73;15.88;;;11.90;96.70;;;;;;5053890;28;20064;-73
2023/01/05 01:07:36;;;;;;;24.80;16.42;;;11.90;96.70;;;;;;5049778;28;20068;-73
2023/01/05 01:10:06;;;;;;;25.55;17.52;;;11.90;96.70;;;;;;5042433;28;20056;-73
2023/01/05 01:12:34;;;;;;;25.85;17.15;;;11.90;96.70;;;;;;5047260;28;20044;-73
2023/01/05 01:15:05;;;;;;;32.95;18.48;;;11.90;96.70;;;;;;5062849;28;20068;-73
2023/01/05 01:17:33;;;;;;;26.23;16.13;;;11.90;96.70;;;;;;5062738;28;20040;-73
2023/01/05 01:20:01;;;;;;;31.92;17.48;;;12.00;96.70;;;;;;5054354;28;20494;-73
2023/01/05 01:22:29;;;;;;;23.05;16.13;;;11.90;96.70;;;;;;5055694;28;20045;-73
2023/01/05 01:24:57;;;;;;;28.95;16.17;;;11.90;96.70;;;;;;5049715;28;20040;-73
2023/01/05 01:27:25;;;;;;;36.60;16.98;;;11.80;96.70;;;;;;5051884;28;20066;-72
2023/01/05 01:29:53;;;;;;;31.85;16.65;;;11.80;96.70;;;;;;5056278;28;20055;-72
2023/01/05 01:32:23;;;;;;;31.52;15.93;;;11.90;96.70;;;;;;5046365;28;20067;-73
2023/01/05 01:34:51;;;;;;;28.00;15.65;;;11.90;96.70;;;;;;5062619;28;20052;-73
2023/01/05 01:37:18;;;;;;;34.22;17.10;;;12.00;96.70;;;;;;5061919;28;20044;-72
2023/01/05 01:39:50;;;;;;;27.77;15.60;;;11.90;96.70;;;;;;5047946;28;20056;-73
2023/01/05 01:42:21;;;;;;;26.25;16.60;;;11.90;96.70;;;;;;5060042;28;20429;-74
2023/01/05 01:44:56;;;;;;;31.45;16.75;;;11.90;96.70;;;;;;5049030;28;20052;-74
2023/01/05 01:47:36;;;;;;;27.33;15.07;;;11.90;96.70;;;;;;5055629;28;20053;-73
2023/01/05 01:50:09;;;;;;;30.42;16.23;;;11.90;96.70;;;;;;5042211;28;20060;-73
2023/01/05 01:52:39;;;;;;;32.50;16.10;;;11.90;96.70;;;;;;5062099;28;20143;-73
2023/01/05 01:55:07;;;;;;;36.58;17.95;;;11.90;96.70;;;;;;5062856;28;20094;-73
2023/01/05 01:57:37;;;;;;;29.77;17.20;;;11.90;96.70;;;;;;5062174;28;20041;-73
2023/01/05 02:00:08;;;;;;;36.42;19.50;;;11.90;96.70;;;;;;5062143;28;20601;-74
2023/01/05 02:02:48;;;;;;;39.42;19.27;;;11.90;96.70;;;;;;5062422;28;20054;-73
2023/01/05 02:05:22;;;;;;;39.53;19.38;;;11.90;96.70;;;;;;5037336;28;20071;-73
2023/01/05 02:07:50;;;;;;;40.83;19.40;;;11.90;96.70;;;;;;5062000;28;20098;-73
2023/01/05 02:10:30;;;;;;;35.40;18.92;;;11.80;96.70;;;;;;5061970;28;20599;-73
2023/01/05 02:13:11;;;;;;;32.03;18.15;;;11.80;96.70;;;;;;5050346;28;20052;-73
2023/01/05 02:15:47;;;;;;;41.25;20.13;;;11.80;96.70;;;;;;5043992;28;20514;-73
2023/01/05 02:18:32;;;;;;;36.35;17.85;;;11.80;96.70;;;;;;5043662;28;20127;-73
2023/01/05 02:21:15;;;;;;;32.20;17.15;;;11.80;96.70;;;;;;5049941;28;20091;-72
2023/01/05 02:24:11;;;;;;;36.20;18.08;;;11.80;96.70;;;;;;5040809;28;20070;-72
2023/01/05 02:27:07;;;;;;;33.70;17.20;;;11.80;96.70;;;;;;5041541;28;20048;-72
2023/01/05 02:29:57;;;;;;;32.03;17.45;;;11.80;96.70;;;;;;5052396;28;20651;-72
2023/01/05 02:32:33;;;;;;;32.35;17.27;;;11.90;96.70;;;;;;5032889;28;20135;-72
2023/01/05 02:35:09;;;;;;;35.08;17.45;;;11.90;96.70;;;;;;5055408;28;20163;-72
2023/01/05 02:37:44;;;;;;;37.80;19.98;;;11.90;96.70;;;;;;5060089;28;20045;-72
2023/01/05 02:40:19;;;;;;;40.15;19.58;;;11.90;96.70;;;;;;5048532;28;20429;-72
2023/01/05 02:42:51;;;;;;;46.83;19.50;;;11.90;96.70;;;;;;5059606;28;20045;-72
2023/01/05 02:45:22;;;;;;;37.20;18.63;;;11.90;96.70;;;;;;5044584;28;20053;-72
2023/01/05 02:47:56;;;;;;;44.08;21.17;;;11.90;96.70;;;;;;5058158;28;20608;-72
2023/01/05 02:50:30;;;;;;;40.88;20.42;;;11.90;96.70;;;;;;5060974;28;20052;-72
2023/01/05 02:53:05;;;;;;;41.13;19.85;;;11.80;96.70;;;;;;5041090;28;20058;-72
2023/01/05 02:55:38;;;;;;;42.13;19.95;;;11.80;96.70;;;;;;5065511;28;20040;-72
2023/01/05 02:58:11;;;;;;;49.55;22.17;;;11.70;96.70;;;;;;5065514;28;20090;-72
2023/01/05 03:00:46;;;;;;;42.17;21.30;;;11.80;96.70;;;;;;5060537;28;20053;-72
2023/01/05 03:03:21;;;;;;;43.13;20.90;;;11.80;96.70;;;;;;5065826;28;20101;-72
2023/01/05 03:05:57;;;;;;;39.45;20.20;;;11.80;96.70;;;;;;5053320;28;20055;-72
2023/01/05 03:08:29;;;;;;;46.65;20.77;;;11.80;96.70;;;;;;5050230;28;20068;-72
2023/01/05 03:13:58;;;;;;;40.88;19.15;;;11.90;96.70;;;;;;5041513;28;20052;-72
2023/01/05 03:16:30;;;;;;;41.00;19.58;;;11.90;96.70;;;;;;5046650;28;20149;-72
2023/01/05 03:36:22;;;;;;;38.33;19.75;;;11.70;96.70;;;;;;5053146;28;20056;-72
2023/01/05 03:38:53;;;;;;;42.47;19.67;;;11.80;96.70;;;;;;5041895;28;20068;-72
2023/01/05 03:41:23;;;;;;;43.13;18.80;;;11.80;96.70;;;;;;5056183;28;20379;-72
2023/01/05 03:43:54;;;;;;;47.00;20.23;;;11.90;96.70;;;;;;5050425;28;20121;-72
2023/01/05 03:46:23;;;;;;;56.70;21.25;;;11.90;96.70;;;;;;5060405;28;20496;-72
2023/01/05 03:48:52;;;;;;;44.63;19.60;;;11.90;96.70;;;;;;5056809;28;20051;-72
2023/01/05 03:51:22;;;;;;;41.28;20.42;;;11.90;96.70;;;;;;5047011;28;20133;-72
2023/01/05 03:53:50;;;;;;;45.83;20.65;;;11.90;96.70;;;;;;5057904;28;20356;-71
2023/01/05 03:56:19;;;;;;;45.70;20.85;;;11.90;96.70;;;;;;5064511;28;20064;-72
2023/01/05 03:58:48;;;;;;;43.00;21.13;;;11.90;96.70;;;;;;5050070;28;20047;-72
2023/01/05 04:01:16;;;;;;;50.60;20.80;;;11.90;96.70;;;;;;5063825;28;20481;-71
2023/01/05 04:03:44;;;;;;;51.17;20.08;;;11.80;96.70;;;;;;5036543;28;20608;-71
2023/01/05 04:06:13;;;;;;;45.83;21.63;;;11.80;96.70;;;;;;5054507;28;20064;-71
2023/01/05 04:08:43;;;;;;;41.05;19.95;;;11.80;96.70;;;;;;5063634;28;20483;-72
2023/01/05 04:11:13;;;;;;;43.58;19.88;;;11.80;96.70;;;;;;5054911;28;20263;-72
2023/01/05 04:13:46;;;;;;;45.42;19.42;;;11.80;96.70;;;;;;5058338;28;20048;-72
2023/01/05 04:16:16;;;;;;;48.72;20.67;;;11.80;96.70;;;;;;5050977;28;20049;-72
2023/01/05 04:18:44;;;;;;;36.53;18.80;;;11.80;96.70;;;;;;5040746;28;20048;-72
2023/01/05 04:21:16;;;;;;;39.60;19.13;;;11.80;96.70;;;;;;5054279;28;20098;-72
2023/01/05 04:23:46;;;;;;;36.60;18.48;;;11.80;96.70;;;;;;5050089;28;20048;-72
2023/01/05 04:26:15;;;;;;;34.03;18.92;;;11.80;96.70;;;;;;5059626;28;20043;-72
2023/01/05 04:28:48;;;;;;;32.08;16.65;;;11.90;96.70;;;;;;5063454;28;20622;-72
2023/01/05 04:31:19;;;;;;;35.80;17.15;;;11.90;96.70;;;;;;5037174;28;20048;-71
2023/01/05 04:33:49;;;;;;;38.55;17.90;;;11.80;96.70;;;;;;5057616;28;20051;-72
2023/01/05 04:36:20;;;;;;;30.48;16.77;;;11.80;96.70;;;;;;5044825;28;20649;-72
2023/01/05 04:38:50;;;;;;;30.58;16.00;;;11.80;96.70;;;;;;5054395;28;20109;-72
2023/01/05 04:41:20;;;;;;;37.05;17.60;;;11.90;96.70;;;;;;5049830;28;20044;-72
2023/01/05 04:43:51;;;;;;;38.42;17.77;;;11.80;96.70;;;;;;5055483;28;20085;-72
2023/01/05 04:46:20;;;;;;;39.85;16.95;;;11.80;96.70;;;;;;5038597;28;20524;-71
2023/01/05 04:48:50;;;;;;;32.47;16.10;;;11.90;96.70;;;;;;5046432;28;20056;-72
2023/01/05 04:51:20;;;;;;;26.58;14.57;;;11.80;96.70;;;;;;5058358;28;20052;-72
2023/01/05 04:53:50;;;;;;;25.58;13.63;;;11.80;96.70;;;;;;5056832;28;20453;-72
2023/01/05 04:56:22;;;;;;;23.65;13.43;;;11.80;96.70;;;;;;5039476;28;20064;-72
2023/01/05 04:58:50;;;;;;;23.40;12.10;;;11.70;96.70;;;;;;5049839;28;20397;-71
2023/01/05 05:01:18;;;;;;;19.30;11.93;;;11.70;96.70;;;;;;5053044;28;20036;-71
2023/01/05 05:03:51;;;;;;;21.58;11.73;;;11.70;96.70;;;;;;5057998;28;20440;-72
2023/01/05 05:06:22;;;;;;;24.42;11.55;;;11.70;96.70;;;;;;5037755;28;20044;-72
2023/01/05 05:08:54;;;;;;;22.58;11.57;;;11.70;96.70;;;;;;5055562;28;20045;-72
2023/01/05 05:11:23;;;;;;;17.75;11.15;;;11.70;96.70;;;;;;5045381;28;20060;-72
2023/01/05 05:13:51;;;;;;;21.08;11.38;;;11.70;96.70;;;;;;5063300;28;20046;-72
2023/01/05 05:16:19;;;;;;;17.23;11.90;;;11.70;96.70;;;;;;5045212;28;20037;-71
2023/01/05 05:18:49;;;;;;;16.80;10.93;;;11.70;96.70;;;;;;5039700;28;20076;-72
2023/01/05 05:21:22;;;;;;;25.25;11.07;;;11.80;96.70;;;;;;5053364;28;20048;-71
2023/01/05 05:23:50;;;;;;;18.08;11.48;;;11.80;96.70;;;;;;5045749;28;20052;-72
2023/01/05 05:26:20;;;;;;;23.65;11.57;;;11.80;96.70;;;;;;5042675;28;20036;-72
2023/01/05 05:28:49;;;;;;;19.25;11.40;;;11.70;96.70;;;;;;5055847;28;20555;-72
2023/01/05 05:31:17;;;;;;;23.02;12.27;;;11.70;96.70;;;;;;5054919;28;20077;-72
2023/01/05 05:33:46;;;;;;;17.58;11.63;;;11.70;96.70;;;;;;5056536;28;20044;-72
2023/01/05 05:36:14;;;;;;;17.40;10.77;;;11.70;96.70;;;;;;5062637;28;20052;-72
2023/01/05 05:38:42;;;;;;;28.80;11.77;;;11.70;96.70;;;;;;5061531;28;20041;-72
2023/01/05 05:41:10;;;;;;;19.65;11.38;;;11.70;96.70;;;;;;5030806;28;20552;-72
2023/01/05 05:43:40;;;;;;;29.90;12.80;;;11.70;96.70;;;;;;5062685;28;20392;-72
2023/01/05 05:46:08;;;;;;;21.25;11.82;;;11.70;96.70;;;;;;5062218;28;20135;-72
2023/01/05 05:48:36;;;;;;;22.42;12.20;;;11.80;96.70;;;;;;5048023;28;20281;-72
2023/01/05 05:51:04;;;;;;;27.05;12.93;;;11.80;96.70;;;;;;5053792;28;20086;-71
2023/01/05 05:53:33;;;;;;;23.95;11.88;;;11.80;96.70;;;;;;5050906;28;20092;-72
2023/01/05 05:56:01;;;;;;;22.05;11.25;;;11.70;96.70;;;;;;5062062;28;20040;-72
2023/01/05 05:58:29;;;;;;;19.48;11.77;;;11.80;96.70;;;;;;5062243;28;20461;-72
2023/01/05 06:00:58;;;;;;;23.52;11.48;;;11.80;96.70;;;;;;5048434;28;20623;-72
2023/01/05 06:03:26;;;;;;;20.50;10.98;;;11.80;96.70;;;;;;5062028;28;20105;-72
2023/01/05 06:05:55;;;;;;;19.17;11.20;;;11.80;96.70;;;;;;5062349;28;20040;-72
2023/01/05 06:08:23;;;;;;;18.95;10.18;;;11.80;96.70;;;;;;5053242;28;20498;-72
2023/01/05 06:10:51;;;;;;;19.95;10.52;;;11.80;96.70;;;;;;5062180;28;20163;-72
2023/01/05 06:13:19;;;;;;;16.75;10.77;;;11.80;96.70;;;;;;5062143;28;20041;-71
2023/01/05 06:15:48;;;;;;;21.95;11.02;;;11.80;96.70;;;;;;5048243;28;20048;-72
2023/01/05 06:18:17;;;;;;;16.73;10.38;;;11.80;96.70;;;;;;5062087;28;20040;-72
2023/01/05 06:20:45;;;;;;;27.20;11.35;;;11.70;96.70;;;;;;5061780;28;20098;-71
2023/01/05 06:23:14;;;;;;;27.65;10.95;;;11.70;96.70;;;;;;5061760;28;20770;-72
2023/01/05 06:25:42;;;;;;;22.30;11.15;;;11.70;96.70;;;;;;5062277;28;20800;-72
2023/01/05 06:28:11;;;;;;;20.25;11.63;;;11.70;96.70;;;;;;5044260;28;20088;-72
2023/01/05 06:30:47;;;;;;;20.10;12.90;;;11.70;96.70;;;;;;5062131;28;20040;-72
2023/01/05 06:33:15;;;;;;;22.63;11.75;;;11.70;96.70;;;;;;5061528;28;20041;-72
2023/01/05 06:35:45;;;;;;;24.75;12.27;;;11.70;96.70;;;;;;5049284;28;20511;-72
2023/01/05 06:38:14;;;;;;;21.88;11.75;;;11.70;96.70;;;;;;5051236;28;20064;-72
2023/01/05 06:40:45;;;;;;;22.73;12.13;;;11.80;96.70;;;;;;5020749;28;20045;-72
2023/01/05 06:43:13;;;;;;;21.48;12.73;;;11.70;96.70;;;;;;5047838;28;20047;-72
2023/01/05 06:45:41;;;;;;;17.90;10.98;;;11.80;96.70;;;;;;5048785;28;20071;-72
2023/01/05 06:48:09;;;;;;;24.80;11.95;;;11.80;96.70;;;;;;5042129;28;20496;-72
2023/01/05 06:50:37;;;;;;;19.80;10.63;;;11.80;96.70;;;;;;5054575;28;20498;-72
2023/01/05 06:53:07;;;;;;;18.05;9.82;;;11.70;96.70;;;;;;5060642;28;20045;-72
2023/01/05 06:55:35;;;;;;;23.17;10.00;;;11.70;96.70;;;;;;5054358;28;20052;-71
2023/01/05 06:58:03;;;;;;;22.17;10.23;;;11.80;96.70;;;;;;5061442;28;20048;-72
2023/01/05 07:00:31;;;;;;;23.35;10.50;;;11.70;96.70;;;;;;5040126;28;20044;-71
2023/01/05 07:02:59;;;;;;;23.95;10.18;;;11.70;96.70;;;;;;5058146;28;20040;-72
2023/01/05 07:05:27;;;;;;;25.38;10.05;;;11.70;96.70;;;;;;5061802;28;21515;-72
2023/01/05 07:07:55;;;;;;;25.48;10.30;;;11.70;96.70;;;;;;5056584;28;20120;-71
2023/01/05 07:10:25;;;;;;;24.65;11.02;;;11.70;96.70;;;;;;5064513;28;20047;-71
2023/01/05 07:12:53;;;;;;;24.88;10.75;;;11.70;96.70;;;;;;5052232;28;20058;-72
2023/01/05 07:15:21;;;;;;;26.10;10.05;;;11.70;96.70;;;;;;5065156;28;20040;-72
2023/01/05 07:17:49;;;;;;;20.80;9.45;;;11.70;96.70;;;;;;5059429;28;20040;-72
2023/01/05 07:20:17;;;;;;;21.75;10.30;;;11.70;96.70;;;;;;5054101;28;20036;-71
2023/01/05 07:22:45;;;;;;;21.80;10.10;;;11.70;96.70;;;;;;5063416;28;20075;-72
2023/01/05 07:25:13;;;;;;;21.33;9.95;;;11.70;96.70;;;;;;5032227;28;20059;-72
2023/01/05 07:27:43;;;;;;;19.70;10.00;;;11.70;96.70;;;;;;5063673;28;20055;-71
2023/01/05 07:30:12;;;;;;;20.90;10.18;;;11.70;96.70;;;;;;5061420;28;20044;-71
2023/01/05 07:32:40;;;;;;;23.35;11.27;;;11.70;96.70;;;;;;5052799;28;20545;-72
2023/01/05 07:35:09;;;;;;;32.03;12.52;;;11.70;96.70;;;;;;5033332;28;20079;-72
2023/01/05 07:37:37;;;;;;;28.48;13.30;;;11.80;96.70;;;;;;5062050;28;20043;-71
2023/01/05 07:40:06;;;;;;;34.85;13.55;;;11.80;96.70;;;;;;5061642;28;20509;-71
2023/01/05 07:42:34;;;;;;;29.45;13.25;;;11.80;96.70;;;;;;5063324;28;20029;-71
2023/01/05 07:45:06;;;;;;;27.38;11.77;;;11.80;96.70;;;;;;5049586;28;20389;-72
2023/01/05 07:47:37;;;;;;;28.33;11.50;;;11.80;96.70;;;;;;5055434;28;20123;-72
2023/01/05 07:50:06;;;;;;;27.20;11.18;;;11.80;96.70;;;;;;5062803;28;20074;-72
2023/01/05 07:52:34;;;;;;;26.90;12.02;;;11.80;96.70;;;;;;5047559;28;20040;-72
2023/01/05 07:55:02;;;;;;;25.30;11.20;;;11.70;96.70;;;;;;5063848;28;20032;-71
2023/01/05 07:57:30;;;;;;;23.98;11.60;;;11.70;96.70;;;;;;5049949;28;20486;-72
2023/01/05 07:59:58;;;;;;;23.23;10.52;;;11.80;96.70;;;;;;5062301;28;20787;-71
2023/01/05 08:02:28;;;;;;;22.05;10.68;;;11.80;96.70;;;;;;5041743;28;20036;-71
2023/01/05 08:05:02;;;;;;;25.30;11.50;;;11.80;96.70;;;;;;5043164;28;20433;-71
2023/01/05 08:07:30;;;;;;;30.83;12.68;;;11.90;96.70;;;;;;5042243;28;20324;-71
2023/01/05 08:15:31;;;;;;;25.00;14.52;;;11.90;96.70;;;;;;5048213;28;20101;-71
2023/01/05 08:18:00;;;;;;;24.90;13.85;;;12.00;96.70;;;;;;5044362;28;20456;-72
2023/01/05 08:20:29;;;;;;;26.02;14.38;;;12.00;96.70;;;;;;5044583;28;20071;-71
2023/01/05 08:22:57;;;;;;;22.00;12.00;;;12.00;96.70;;;;;;5030477;28;20036;-72
2023/01/05 08:25:25;;;;;;;18.38;10.13;;;12.00;96.70;;;;;;5063379;28;20046;-71
2023/01/05 08:27:53;;;;;;;26.05;11.75;;;11.90;96.70;;;;;;5044366;28;20162;-72
2023/01/05 08:30:21;;;;;;;20.50;11.15;;;11.80;96.70;;;;;;5045003;28;20055;-71
2023/01/05 08:32:49;;;;;;;24.20;12.68;;;11.80;96.70;;;;;;5062674;28;20044;-72
2023/01/05 08:35:19;;;;;;;22.15;11.63;;;11.90;96.70;;;;;;5063150;28;20414;-72
2023/01/05 08:37:47;;;;;;;19.25;10.98;;;11.90;96.70;;;;;;5059655;28;20055;-72
2023/01/05 08:40:15;;;;;;;20.45;11.98;;;12.00;96.70;;;;;;5046766;28;20437;-72
2023/01/05 08:42:46;;;;;;;22.75;12.35;;;12.00;96.70;;;;;;5060135;28;20304;-71
2023/01/05 08:45:15;;;;;;;23.85;12.57;;;12.10;96.70;;;;;;5051648;28;20060;-73
2023/01/05 08:47:43;;;;;;;22.60;12.57;;;12.20;96.70;;;;;;5049065;28;20624;-74
2023/01/05 08:50:11;;;;;;;22.52;12.77;;;12.20;96.70;;;;;;5060033;28;20052;-71
2023/01/05 08:52:41;;;;;;;24.02;14.10;;;12.20;96.70;;;;;;5047797;28;20509;-72
2023/01/05 08:55:09;;;;;;;22.48;13.10;;;12.20;96.70;;;;;;5052421;28;20064;-72
2023/01/05 08:57:37;;;;;;;25.27;13.63;;;12.30;96.70;;;;;;5048597;28;20040;-73
2023/01/05 09:00:07;;;;;;;21.95;13.57;;;12.40;96.70;;;;;;5051651;28;20115;-73
2023/01/05 09:02:35;;;;;;;23.23;13.40;;;12.40;96.70;;;;;;5050720;28;20033;-72
2023/01/05 09:05:04;;;;;;;28.27;14.85;;;12.40;96.70;;;;;;5063296;28;20087;-72
2023/01/05 09:07:32;;;;;;;21.00;13.70;;;12.40;96.70;;;;;;5062600;28;20043;-71
2023/01/05 09:10:05;;;;;;;22.98;14.23;;;12.40;96.70;;;;;;5062056;28;20045;-72
2023/01/05 09:12:35;;;;;;;24.75;14.43;;;12.40;96.70;;;;;;5045209;28;20048;-71
2023/01/05 09:15:05;;;;;;;21.23;13.32;;;12.50;96.70;;;;;;5058301;28;20044;-72
2023/01/05 09:17:37;;;;;;;24.58;14.57;;;12.50;96.70;;;;;;5030657;28;20166;-72
2023/01/05 09:20:06;;;;;;;25.60;15.40;;;12.60;96.70;;;;;;5062359;28;20048;-71
2023/01/05 09:22:35;;;;;;;23.45;15.02;;;12.60;96.70;;;;;;5059528;28;20084;-71
2023/01/05 09:25:05;;;;;;;22.92;13.95;;;12.60;96.70;;;;;;5037691;28;20072;-72
2023/01/05 09:27:35;;;;;;;22.30;13.55;;;12.60;96.70;;;;;;5058815;28;20579;-71
2023/01/05 09:30:04;;;;;;;19.58;12.73;;;12.60;96.70;;;;;;5057455;28;20068;-71
2023/01/05 09:32:32;;;;;;;22.92;14.45;;;12.60;96.70;;;;;;5051406;28;20526;-72
2023/01/05 09:35:00;;;;;;;24.10;15.05;;;12.60;96.70;;;;;;5061693;28;20107;-72
2023/01/05 09:37:28;;;;;;;24.83;15.20;;;12.70;96.70;;;;;;5062177;28;20305;-72
2023/01/05 09:39:56;;;;;;;20.00;14.00;;;12.70;96.70;;;;;;5061219;28;20040;-72
2023/01/05 09:42:29;;;;;;;20.65;14.20;;;12.80;96.70;;;;;;5062428;28;20115;-71
2023/01/05 09:45:03;;;;;;;22.00;13.82;;;12.80;96.70;;;;;;5062708;28;20040;-72
2023/01/05 09:47:35;;;;;;;19.10;12.73;;;12.90;96.70;;;;;;5036511;28;20041;-72
2023/01/05 09:50:05;;;;;;;15.50;11.15;;;12.90;96.70;;;;;;5062313;28;20053;-72
2023/01/05 09:52:34;;;;;;;16.38;11.13;;;13.00;96.70;;;;;;5045060;28;20597;-72
2023/01/05 09:55:14;;;;;;;15.48;11.30;;;13.00;96.70;;;;;;5062005;28;20040;-72
2023/01/05 09:57:52;;;;;;;14.18;10.35;;;13.10;96.70;;;;;;5051491;28;20048;-71
2023/01/05 10:00:23;;;;;;;14.25;10.65;;;13.20;96.70;;;;;;5033772;28;20056;-72
2023/01/05 10:02:55;;;;;;;19.92;13.65;;;13.40;96.70;;;;;;5041185;28;20789;-71
2023/01/05 10:05:26;;;;;;;17.15;12.73;;;13.50;96.70;;;;;;5044474;28;20129;-71
2023/01/05 10:08:00;;;;;;;40.55;27.92;;;13.40;96.70;;;;;;5043519;28;20455;-71
2023/01/05 10:10:42;;;;;;;17.73;13.32;;;13.40;96.70;;;;;;5044494;28;20045;-72
2023/01/05 10:13:23;;;;;;;20.65;14.52;;;13.40;96.70;;;;;;5055407;28;20098;-72
2023/01/05 10:15:53;;;;;;;21.92;15.10;;;13.40;96.70;;;;;;5043459;28;20787;-72
2023/01/05 10:18:24;;;;;;;19.80;13.88;;;13.50;96.70;;;;;;5059112;28;20037;-72
2023/01/05 10:21:03;;;;;;;17.88;13.57;;;13.50;96.70;;;;;;5061096;28;20655;-71
2023/01/05 10:23:55;;;;;;;16.83;13.52;;;13.70;96.70;;;;;;5053880;28;20509;-72
2023/01/05 10:26:27;;;;;;;20.45;14.10;;;13.80;96.70;;;;;;5038417;28;20052;-71
2023/01/05 10:29:10;;;;;;;17.92;12.93;;;14.00;96.70;;;;;;5048176;28;20118;-72
2023/01/05 10:31:45;;;;;;;17.27;13.43;;;14.20;96.70;;;;;;5052291;28;20056;-73
2023/01/05 10:34:21;;;;;;;17.95;13.88;;;14.30;96.70;;;;;;5050873;28;20453;-72
2023/01/05 10:37:11;;;;;;;15.70;12.38;;;14.30;96.70;;;;;;5061948;28;20049;-72
2023/01/05 10:39:59;;;;;;;18.52;14.02;;;14.30;96.70;;;;;;5060575;28;20077;-72
2023/01/05 10:42:46;;;;;;;22.45;14.63;;;14.30;96.70;;;;;;5024060;28;20663;-72
2023/01/05 10:45:16;;;;;;;;;;;14.40;96.70;;;;;;5064293;28;20037;-72
2023/01/05 10:47:45;;;;;;;23.35;15.63;;;14.40;96.70;;;;;;5055636;28;19955;-71
2023/01/05 10:50:28;;;;;;;20.77;15.02;;;14.40;96.70;;;;;;5069823;28;20044;-71
2023/01/05 10:52:57;;;;;;;18.50;15.20;;;14.30;96.70;;;;;;5071833;28;20542;-71
2023/01/05 10:55:28;;;;;;;19.52;14.82;;;14.40;96.70;;;;;;5058220;28;20051;-72
2023/01/05 10:57:57;;;;;;;18.80;14.20;;;14.30;96.70;;;;;;5050670;28;20076;-71
2023/01/05 11:00:40;;;;;;;19.67;15.32;;;14.30;96.70;;;;;;5085185;28;20047;-71
2023/01/05 11:03:14;;;;;;;22.65;16.27;;;14.30;96.70;;;;;;5058178;28;20375;-72
2023/01/05 11:05:45;;;;;;;19.48;15.10;;;14.30;96.70;;;;;;5064701;28;20055;-72
2023/01/05 11:08:16;;;;;;;18.80;14.23;;;14.40;96.70;;;;;;5080744;28;20649;-72
2023/01/05 11:10:51;;;;;;;18.63;14.63;;;14.40;96.70;;;;;;5044313;28;20062;-72
2023/01/05 11:13:29;;;;;;;20.73;15.18;;;14.40;96.70;;;;;;5065117;28;20079;-72
2023/01/05 11:16:06;;;;;;;18.60;14.23;;;14.50;96.70;;;;;;5076183;28;20044;-72
2023/01/05 11:18:35;;;;;;;;;;;14.50;96.70;;;;;;5077510;28;20044;-72
2023/01/05 11:21:10;;;;;;;19.13;13.82;;;14.60;96.70;;;;;;5083428;28;20870;-72
2023/01/05 11:23:39;;;;;;;18.77;13.98;;;14.60;96.70;;;;;;5056856;28;20040;-71
2023/01/05 11:26:35;;;;;;;16.95;13.20;;;14.60;96.70;;;;;;5076123;28;20044;-71
2023/01/05 11:29:14;;;;;;;16.30;12.85;;;14.60;96.70;;;;;;5026416;28;20084;-71
2023/01/05 11:31:48;;;;;;;19.75;13.25;;;14.80;96.70;;;;;;5061153;28;20131;-72
2023/01/05 11:34:28;;;;;;;19.08;14.43;;;14.90;96.70;;;;;;5053236;28;20044;-71
2023/01/05 11:36:57;;;;;;;21.42;14.00;;;15.00;96.70;;;;;;5066303;28;20640;-72
2023/01/05 11:39:37;;;;;;;18.27;13.25;;;15.00;96.70;;;;;;5063085;28;20050;-72
2023/01/05 11:42:12;;;;;;;16.20;12.50;;;15.00;96.70;;;;;;5049979;28;20059;-72
2023/01/05 11:44:49;;;;;;;16.83;12.68;;;15.10;96.70;;;;;;5053823;28;20231;-72
2023/01/05 11:47:22;;;;;;;16.70;12.18;;;15.10;96.70;;;;;;5080434;28;20048;-72
2023/01/05 11:50:05;;;;;;;18.50;12.48;;;15.20;96.70;;;;;;5083205;28;20067;-71
2023/01/05 11:52:38;;;;;;;16.98;12.95;;;15.30;96.70;;;;;;5062761;28;20596;-74
2023/01/05 11:55:32;;;;;;;17.88;12.52;;;15.30;96.70;;;;;;5058465;28;20051;-71
2023/01/05 11:58:21;;;;;;;13.77;11.50;;;15.30;96.70;;;;;;5045069;28;20068;-71
2023/01/05 12:01:34;;;;;;;14.18;9.75;;;15.30;96.70;;;;;;5059007;28;20048;-71
2023/01/05 12:04:09;;;;;;;12.32;9.88;;;15.40;96.70;;;;;;5063669;28;20082;-71
2023/01/05 12:07:05;;;;;;;13.77;10.40;;;15.50;96.70;;;;;;5054248;28;20082;-72
2023/01/05 12:09:35;;;;;;;11.98;8.32;;;15.60;96.70;;;;;;5054043;28;20402;-71
2023/01/05 12:12:23;;;;;;;11.43;8.15;;;15.60;96.70;;;;;;5066653;28;20044;-71
2023/01/05 12:15:02;;;;;;;12.82;7.75;;;15.60;96.70;;;;;;5054968;28;20730;-71
2023/01/05 12:17:38;;;;;;;12.15;7.82;;;15.70;96.70;;;;;;5060410;28;20035;-71
2023/01/05 12:20:28;;;;;;;12.95;9.15;;;15.60;96.70;;;;;;5074493;28;20430;-71
2023/01/05 12:23:27;;;;;;;7.30;5.95;;;15.60;96.70;;;;;;5057187;28;20041;-71
2023/01/05 12:26:00;;;;;;;6.88;4.72;;;15.60;96.70;;;;;;5053620;28;20478;-72
2023/01/05 12:28:45;;;;;;;7.22;4.53;;;15.60;96.70;;;;;;5066676;28;20094;-71
2023/01/05 12:31:47;;;;;;;6.25;3.95;;;15.70;96.70;;;;;;5038979;28;20063;-71
2023/01/05 12:34:59;;;;;;;5.88;4.20;;;15.70;96.70;;;;;;5066477;28;20063;-71
2023/01/05 12:37:39;;;;;;;7.07;3.78;;;15.70;96.70;;;;;;5037653;28;20045;-71
2023/01/05 12:40:32;;;;;;;5.43;3.90;;;15.70;96.70;;;;;;5072431;28;20378;-71
2023/01/05 12:43:02;;;;;;;6.82;4.78;;;15.70;96.70;;;;;;5048907;28;20153;-71
2023/01/05 12:46:02;;;;;;;6.32;4.38;;;15.70;96.70;;;;;;5082693;28;20043;-71
2023/01/05 12:48:33;;;;;;;6.25;3.80;;;15.70;96.70;;;;;;5057562;28;20048;-71
2023/01/05 12:51:07;;;;;;;6.28;3.28;;;15.60;96.70;;;;;;5044199;28;20061;-71
2023/01/05 12:53:46;;;;;;;5.32;3.75;;;15.60;96.70;;;;;;5063706;28;20052;-71
2023/01/05 12:56:22;;;;;;;6.43;3.83;;;15.70;96.70;;;;;;5043522;28;20750;-71
2023/01/05 12:59:08;;;;;;;6.35;3.65;;;15.60;96.70;;;;;;5063920;28;20477;-71
2023/01/05 13:01:41;;;;;;;6.13;4.00;;;15.60;96.70;;;;;;5063861;28;20047;-71
2023/01/05 13:04:24;;;;;;;5.63;3.25;;;15.70;96.70;;;;;;5045859;28;20055;-72
2023/01/05 13:06:58;;;;;;;6.45;3.80;;;15.60;96.70;;;;;;5051296;28;20071;-72
2023/01/05 13:09:31;;;;;;;4.30;2.20;;;15.60;96.70;;;;;;5052460;28;20082;-72
2023/01/05 13:12:05;;;;;;;2.95;2.33;;;15.50;96.70;;;;;;5039334;28;20588;-71
2023/01/05 13:14:35;;;;;;;5.78;2.83;;;15.50;96.70;;;;;;5055744;28;20560;-70
2023/01/05 13:17:10;;;;;;;6.88;3.08;;;15.40;96.70;;;;;;5062903;28;20513;-72
2023/01/05 13:19:44;;;;;;;6.47;3.35;;;15.30;96.70;;;;;;5061360;28;20052;-71
2023/01/05 13:22:19;;;;;;;6.50;3.33;;;15.30;96.70;;;;;;5063200;28;20218;-71
2023/01/05 13:24:51;;;;;;;7.15;3.60;;;15.30;96.70;;;;;;5062991;28;20044;-71
2023/01/05 13:27:19;;;;;;;5.30;3.50;;;15.30;96.70;;;;;;5062499;28;20040;-75
2023/01/05 13:29:53;;;;;;;7.75;3.72;;;15.30;96.70;;;;;;5060563;28;20044;-74
2023/01/05 13:32:34;;;;;;;5.60;3.55;;;15.30;96.70;;;;;;5062537;28;20055;-74
2023/01/05 13:35:32;;;;;;;6.68;4.05;;;15.30;96.70;;;;;;5062540;28;20054;-74